Time;durP1;ratioP1;P1;durP2;ratioP2;P2;SDS_P1;SDS_P2;PMS_P1;PMS_P2;Temp;Humidity;BMP_temperature;BMP_pressure;BME280_temperature;BME280_humidity;BME280_pressure;Samples;Min_cycle;Max_cycle;Signal;HPM_P1;HPM_P2
2022/08/01 00:01:52;;;;;;;527.67;411.02;;;19.10;99.90;;;;;;5047325;28;20060;-76
2022/08/01 00:04:18;;;;;;;50.45;40.67;;;19.10;99.90;;;;;;5028731;28;20029;-76
2022/08/01 00:06:44;;;;;;;232.20;210.57;;;19.10;99.90;;;;;;5031159;28;20510;-77
2022/08/01 00:09:10;;;;;;;16.55;14.63;;;19.10;99.90;;;;;;5047878;28;20087;-76
2022/08/01 00:11:35;;;;;;;12.48;10.00;;;19.10;99.90;;;;;;5047573;28;20033;-77
2022/08/01 00:14:01;;;;;;;13.63;11.10;;;19.10;99.90;;;;;;5049167;28;20033;-77
2022/08/01 00:16:27;;;;;;;12.98;10.02;;;19.10;99.90;;;;;;5031445;28;20029;-76
2022/08/01 00:18:53;;;;;;;11.45;9.93;;;19.10;99.90;;;;;;5047435;28;20032;-77
2022/08/01 00:21:19;;;;;;;10.75;9.57;;;19.10;99.90;;;;;;5048538;28;20029;-77
2022/08/01 00:23:45;;;;;;;12.23;9.68;;;19.10;99.90;;;;;;5048679;28;20040;-76
2022/08/01 00:26:13;;;;;;;9.70;8.70;;;19.10;99.90;;;;;;5030697;28;20029;-77
2022/08/01 00:28:38;;;;;;;11.43;9.60;;;19.10;99.90;;;;;;5043400;28;20080;-77
2022/08/01 00:31:04;;;;;;;10.75;9.65;;;19.10;99.90;;;;;;5027368;28;20612;-77
2022/08/01 00:33:30;;;;;;;12.45;9.82;;;19.10;99.90;;;;;;5029909;28;20017;-77
2022/08/01 00:35:56;;;;;;;10.30;9.07;;;19.10;99.90;;;;;;5029453;28;20021;-77
2022/08/01 00:38:21;;;;;;;12.80;10.10;;;19.10;99.90;;;;;;5044189;28;20100;-77
2022/08/01 00:40:47;;;;;;;11.07;9.68;;;19.10;99.90;;;;;;5048422;28;20176;-77
2022/08/01 00:43:14;;;;;;;12.35;9.43;;;19.10;99.90;;;;;;5029626;28;20032;-77
2022/08/01 00:45:41;;;;;;;11.88;9.73;;;19.10;99.90;;;;;;5047811;28;20021;-77
2022/08/01 00:48:07;;;;;;;10.90;9.00;;;19.20;99.90;;;;;;5011790;28;20025;-76
2022/08/01 00:50:33;;;;;;;9.45;8.30;;;19.10;99.90;;;;;;5026308;28;20022;-77
2022/08/01 00:53:00;;;;;;;11.77;8.13;;;19.10;99.90;;;;;;5030393;28;20033;-77
2022/08/01 00:55:28;;;;;;;9.43;7.20;;;19.10;99.90;;;;;;5046376;28;20403;-77
2022/08/01 00:57:54;;;;;;;8.25;7.07;;;19.10;99.90;;;;;;5035707;28;20021;-76
2022/08/01 01:00:21;;;;;;;7.00;6.15;;;19.10;99.90;;;;;;5053987;28;20021;-77
2022/08/01 01:02:47;;;;;;;9.23;7.15;;;19.10;99.90;;;;;;5056972;28;20047;-76
2022/08/01 01:05:13;;;;;;;7.25;6.50;;;19.10;99.90;;;;;;5039448;28;20040;-76
2022/08/01 01:07:57;;;;;;;9.13;7.53;;;19.10;99.90;;;;;;5041759;28;20428;-77
2022/08/01 01:11:02;;;;;;;7.85;6.43;;;19.10;99.90;;;;;;5045136;28;20045;-77
2022/08/01 01:13:49;;;;;;;9.95;7.60;;;19.10;99.90;;;;;;5012324;28;20102;-77
2022/08/01 01:16:18;;;;;;;9.63;7.88;;;19.10;99.90;;;;;;5021859;28;20048;-77
2022/08/01 01:18:53;;;;;;;10.93;7.97;;;19.00;99.90;;;;;;5044235;28;20037;-77
2022/08/01 01:21:19;;;;;;;12.43;8.40;;;19.10;99.90;;;;;;5009693;28;20493;-77
2022/08/01 01:24:18;;;;;;;9.73;7.53;;;19.10;99.90;;;;;;5040778;28;20021;-77
2022/08/01 01:26:55;;;;;;;10.30;8.65;;;19.10;99.90;;;;;;5043385;28;20056;-77
2022/08/01 01:29:30;;;;;;;10.15;8.45;;;19.10;99.90;;;;;;5049553;28;20037;-77
2022/08/01 01:32:25;;;;;;;13.35;9.02;;;19.10;99.90;;;;;;5049101;28;20032;-77
2022/08/01 01:34:54;;;;;;;14.93;9.27;;;19.10;99.90;;;;;;5046305;28;20625;-77
2022/08/01 01:37:24;;;;;;;10.52;8.90;;;19.10;99.90;;;;;;5050310;28;20029;-77
2022/08/01 01:39:52;;;;;;;10.60;8.07;;;19.10;99.90;;;;;;5030123;28;20096;-77
2022/08/01 01:42:19;;;;;;;11.80;9.27;;;19.10;99.90;;;;;;5047197;28;20033;-76
2022/08/01 01:44:46;;;;;;;11.13;9.10;;;19.10;99.90;;;;;;5035006;28;20020;-76
2022/08/01 01:47:13;;;;;;;13.27;9.48;;;19.10;99.90;;;;;;5047937;28;20037;-77
2022/08/01 01:49:41;;;;;;;14.02;9.65;;;19.10;99.90;;;;;;5049466;28;20489;-77
2022/08/01 01:52:09;;;;;;;10.45;8.70;;;19.10;99.90;;;;;;5049269;28;20504;-76
2022/08/01 01:54:42;;;;;;;12.32;9.18;;;19.10;99.90;;;;;;5049702;28;20028;-76
2022/08/01 01:57:09;;;;;;;14.07;9.52;;;19.10;99.90;;;;;;5047422;28;20044;-77
2022/08/01 01:59:37;;;;;;;11.95;9.50;;;19.10;99.90;;;;;;5027449;28;20606;-78
2022/08/01 02:02:05;;;;;;;11.90;9.25;;;19.10;99.90;;;;;;5030565;28;20038;-76
2022/08/01 02:04:32;;;;;;;14.73;9.75;;;19.00;99.90;;;;;;5047469;28;20519;-76
2022/08/01 02:07:00;;;;;;;11.13;8.73;;;19.00;99.90;;;;;;5051494;28;20025;-77
2022/08/01 02:09:28;;;;;;;14.18;8.98;;;19.00;99.90;;;;;;5032839;28;20044;-76
2022/08/01 02:11:55;;;;;;;10.63;8.55;;;19.00;99.90;;;;;;5047896;28;20392;-77
2022/08/01 02:14:23;;;;;;;16.77;9.98;;;19.00;99.90;;;;;;5046567;28;20031;-76
2022/08/01 02:16:50;;;;;;;12.70;8.18;;;19.00;99.90;;;;;;5051179;28;20024;-77
2022/08/01 02:19:20;;;;;;;12.30;7.95;;;19.00;99.90;;;;;;5036148;28;20039;-77
2022/08/01 02:21:57;;;;;;;13.55;8.10;;;19.00;99.90;;;;;;5050234;28;20104;-78
2022/08/01 02:24:23;;;;;;;12.13;8.38;;;19.00;99.90;;;;;;5036050;28;20667;-77
2022/08/01 02:26:52;;;;;;;9.85;7.78;;;19.00;99.90;;;;;;5036144;28;20029;-77
2022/08/01 02:29:28;;;;;;;10.00;8.07;;;18.90;99.90;;;;;;5027857;28;20032;-77
2022/08/01 02:31:55;;;;;;;9.98;8.07;;;19.00;99.90;;;;;;5050527;28;20447;-77
2022/08/01 02:34:23;;;;;;;13.82;7.75;;;18.90;99.90;;;;;;5031292;28;20036;-77
2022/08/01 02:36:51;;;;;;;10.48;7.30;;;18.90;99.90;;;;;;5033566;28;20021;-76
2022/08/01 02:39:19;;;;;;;11.00;7.25;;;18.90;99.90;;;;;;5047902;28;20507;-77
2022/08/01 02:41:48;;;;;;;8.38;7.03;;;18.90;99.90;;;;;;5033753;28;20536;-76
2022/08/01 02:44:24;;;;;;;10.35;7.47;;;18.90;99.90;;;;;;5015991;28;20032;-76
2022/08/01 02:46:56;;;;;;;12.15;7.82;;;18.90;99.90;;;;;;5049112;28;20025;-76
2022/08/01 02:49:22;;;;;;;;;;;18.90;99.90;;;;;;5033269;28;20040;-77
2022/08/01 02:51:49;;;;;;;11.35;7.22;;;18.90;99.90;;;;;;5045822;28;19913;-76
2022/08/01 02:54:18;;;;;;;14.73;8.57;;;18.90;99.90;;;;;;5048100;28;20048;-76
2022/08/01 02:56:46;;;;;;;9.45;7.78;;;18.80;99.90;;;;;;5047319;28;20069;-76
2022/08/01 02:59:16;;;;;;;12.68;9.05;;;18.80;99.90;;;;;;5047229;28;20286;-77
2022/08/01 03:01:44;;;;;;;12.50;8.90;;;18.80;99.90;;;;;;5032234;28;20029;-78
2022/08/01 03:04:11;;;;;;;11.77;9.23;;;18.80;99.90;;;;;;5049600;28;20028;-77
2022/08/01 03:06:38;;;;;;;11.60;7.85;;;18.80;99.90;;;;;;5049311;28;20072;-77
2022/08/01 03:09:06;;;;;;;8.18;7.30;;;18.90;99.90;;;;;;5048274;28;20671;-76
2022/08/01 03:11:34;;;;;;;11.13;7.32;;;18.80;99.90;;;;;;5032497;28;20037;-77
2022/08/01 03:14:04;;;;;;;11.77;7.78;;;18.80;99.90;;;;;;5027896;28;20049;-77
2022/08/01 03:16:33;;;;;;;9.73;7.15;;;18.80;99.90;;;;;;5048366;28;20109;-76
2022/08/01 03:19:01;;;;;;;8.50;6.90;;;18.80;99.90;;;;;;5032962;28;20017;-76
2022/08/01 03:21:30;;;;;;;7.97;6.55;;;18.90;99.90;;;;;;5028119;28;20032;-76
2022/08/01 03:23:59;;;;;;;7.85;6.88;;;18.80;99.90;;;;;;5045705;28;20060;-77
2022/08/01 03:26:30;;;;;;;8.82;7.35;;;18.80;99.90;;;;;;5037037;28;20046;-77
2022/08/01 03:29:01;;;;;;;9.40;7.22;;;18.80;99.90;;;;;;5032532;28;20029;-77
2022/08/01 03:31:28;;;;;;;9.95;7.38;;;18.80;99.90;;;;;;5013189;28;20553;-77
2022/08/01 03:33:54;;;;;;;8.45;6.88;;;18.80;99.90;;;;;;5030222;28;20032;-76
2022/08/01 03:36:26;;;;;;;8.85;6.75;;;18.80;99.90;;;;;;5047877;28;20032;-76
2022/08/01 03:38:56;;;;;;;12.35;6.93;;;18.80;99.90;;;;;;5043675;28;20018;-76
2022/08/01 03:41:25;;;;;;;10.13;7.07;;;18.80;99.90;;;;;;5032069;28;20548;-76
2022/08/01 03:44:13;;;;;;;7.88;6.50;;;18.80;99.90;;;;;;5044068;28;20051;-76
2022/08/01 03:46:46;;;;;;;9.27;5.88;;;18.80;99.90;;;;;;5046295;28;20025;-76
2022/08/01 03:49:21;;;;;;;7.05;5.97;;;18.80;99.90;;;;;;5028985;28;20128;-76
2022/08/01 03:51:49;;;;;;;9.05;5.80;;;18.80;99.90;;;;;;5031295;28;20416;-76
2022/08/01 03:54:20;;;;;;;11.38;6.22;;;18.80;99.90;;;;;;5030429;28;20452;-76
2022/08/01 03:56:48;;;;;;;7.30;5.25;;;18.80;99.90;;;;;;5030408;28;20083;-77
2022/08/01 03:59:16;;;;;;;5.43;4.72;;;18.80;99.90;;;;;;5048369;28;20052;-76
2022/08/01 04:01:45;;;;;;;5.00;4.10;;;18.80;99.90;;;;;;5042587;28;20082;-76
2022/08/01 04:04:12;;;;;;;5.55;4.28;;;18.80;99.90;;;;;;5043342;28;20085;-77
2022/08/01 04:06:39;;;;;;;7.85;5.07;;;18.80;99.90;;;;;;5033033;28;20485;-77
2022/08/01 04:09:07;;;;;;;10.05;4.82;;;18.80;99.90;;;;;;5048213;28;20056;-77
2022/08/01 04:11:32;;;;;;;9.20;5.35;;;18.80;99.90;;;;;;5013073;28;20029;-76
2022/08/01 04:13:58;;;;;;;9.50;5.93;;;18.90;99.90;;;;;;5030415;28;20082;-76
2022/08/01 04:16:24;;;;;;;5.75;5.15;;;18.80;99.90;;;;;;5039427;28;20036;-77
2022/08/01 04:18:50;;;;;;;8.90;5.00;;;18.90;99.90;;;;;;5029727;28;20612;-77
2022/08/01 04:21:22;;;;;;;9.82;5.15;;;18.90;99.90;;;;;;5022869;28;20045;-76
2022/08/01 04:23:51;;;;;;;6.93;4.43;;;18.90;99.90;;;;;;5046519;28;20029;-77
2022/08/01 04:26:19;;;;;;;6.43;4.50;;;18.90;99.90;;;;;;5026633;28;20037;-77
2022/08/01 04:28:46;;;;;;;5.65;4.03;;;18.90;99.90;;;;;;5046284;28;20082;-76
2022/08/01 04:31:15;;;;;;;8.57;3.50;;;18.90;99.90;;;;;;5029680;28;20633;-77
2022/08/01 04:33:45;;;;;;;5.18;3.90;;;18.90;99.90;;;;;;5048481;28;20031;-77
2022/08/01 04:36:14;;;;;;;5.80;3.70;;;18.90;99.90;;;;;;5042913;28;20021;-76
2022/08/01 04:38:45;;;;;;;5.00;3.53;;;18.90;99.90;;;;;;5026485;28;20021;-76
2022/08/01 04:41:13;;;;;;;5.18;2.97;;;18.90;99.90;;;;;;5049607;28;20162;-77
2022/08/01 04:43:40;;;;;;;5.10;3.20;;;18.90;99.90;;;;;;5035516;28;20464;-76
2022/08/01 04:46:07;;;;;;;6.90;3.03;;;18.90;99.90;;;;;;5030672;28;20087;-76
2022/08/01 04:48:36;;;;;;;4.90;2.80;;;18.90;99.90;;;;;;5041703;28;20033;-77
2022/08/01 04:51:02;;;;;;;4.47;2.63;;;18.90;99.90;;;;;;5033675;28;20029;-76
2022/08/01 04:53:27;;;;;;;6.32;2.55;;;18.90;99.90;;;;;;5029551;28;20555;-76
2022/08/01 04:55:53;;;;;;;4.43;2.80;;;18.90;99.90;;;;;;5026243;28;20462;-77
2022/08/01 04:58:19;;;;;;;4.63;2.75;;;18.80;99.90;;;;;;5029301;28;20037;-77
2022/08/01 05:00:45;;;;;;;5.05;2.42;;;18.80;99.90;;;;;;5022598;28;20049;-77
2022/08/01 05:03:11;;;;;;;3.78;2.28;;;18.80;99.90;;;;;;5043427;28;20025;-77
2022/08/01 05:05:37;;;;;;;3.55;1.80;;;18.80;99.90;;;;;;5031150;28;20040;-76
2022/08/01 05:08:03;;;;;;;3.53;2.15;;;18.80;99.90;;;;;;5040771;28;20037;-75
2022/08/01 05:10:28;;;;;;;3.67;1.90;;;18.80;99.90;;;;;;5025157;28;20048;-76
2022/08/01 05:12:54;;;;;;;3.88;2.28;;;18.80;99.90;;;;;;5027619;28;21718;-77
2022/08/01 05:15:21;;;;;;;2.53;1.80;;;18.80;99.90;;;;;;5040067;28;20401;-77
2022/08/01 05:17:46;;;;;;;5.40;2.25;;;18.80;99.90;;;;;;5046919;28;20025;-77
2022/08/01 05:20:12;;;;;;;4.25;1.70;;;18.70;99.90;;;;;;5046698;28;20085;-76
2022/08/01 05:22:38;;;;;;;2.97;2.20;;;18.70;99.90;;;;;;5030499;28;20027;-76
2022/08/01 05:25:04;;;;;;;5.55;2.00;;;18.80;99.90;;;;;;5045308;28;20120;-76
2022/08/01 05:27:31;;;;;;;2.28;1.92;;;18.80;99.90;;;;;;5044570;28;20033;-78
2022/08/01 05:29:57;;;;;;;3.35;2.25;;;18.80;99.90;;;;;;5044758;28;20051;-77
2022/08/01 05:32:23;;;;;;;6.18;2.80;;;18.80;99.90;;;;;;5024550;28;20067;-77
2022/08/01 05:34:48;;;;;;;6.28;2.97;;;18.80;99.90;;;;;;5037277;28;20386;-77
2022/08/01 05:37:14;;;;;;;3.80;2.88;;;18.80;99.90;;;;;;5041795;28;20044;-79
2022/08/01 05:39:41;;;;;;;4.57;3.35;;;18.80;99.90;;;;;;5020466;28;20260;-79
2022/08/01 05:42:07;;;;;;;6.40;4.00;;;18.90;99.90;;;;;;5028338;28;20082;-79
2022/08/01 05:44:33;;;;;;;5.63;4.20;;;18.90;99.90;;;;;;5028018;28;20033;-78
2022/08/01 05:46:58;;;;;;;6.03;4.85;;;18.90;99.90;;;;;;5019195;28;20505;-75
2022/08/01 05:49:24;;;;;;;8.15;5.38;;;18.90;99.90;;;;;;5017976;28;20505;-75
2022/08/01 05:51:50;;;;;;;6.82;4.93;;;18.90;99.90;;;;;;5004003;28;20564;-74
2022/08/01 05:54:15;;;;;;;5.72;4.55;;;18.90;99.90;;;;;;5022193;28;20492;-74
2022/08/01 05:56:41;;;;;;;7.38;4.95;;;18.90;99.90;;;;;;5023963;28;20033;-74
2022/08/01 05:59:07;;;;;;;7.07;5.15;;;18.90;99.90;;;;;;5041370;28;20029;-74
2022/08/01 06:01:32;;;;;;;8.70;5.90;;;18.80;99.90;;;;;;5011935;28;20029;-74
2022/08/01 06:03:58;;;;;;;9.32;6.40;;;18.80;99.90;;;;;;5020805;28;20057;-74
2022/08/01 06:06:24;;;;;;;10.82;6.95;;;18.80;99.90;;;;;;5045934;28;20029;-74
2022/08/01 06:08:51;;;;;;;9.00;6.78;;;18.80;99.90;;;;;;5047836;28;20112;-75
2022/08/01 06:11:17;;;;;;;10.63;7.20;;;18.90;99.90;;;;;;5025627;28;20044;-75
2022/08/01 06:13:44;;;;;;;10.90;8.32;;;18.90;99.90;;;;;;5046034;28;20041;-74
2022/08/01 06:16:10;;;;;;;15.02;8.55;;;18.80;99.90;;;;;;5031426;28;20112;-74
2022/08/01 06:18:35;;;;;;;12.82;7.53;;;18.90;99.90;;;;;;5033846;28;20104;-73
2022/08/01 06:21:01;;;;;;;10.02;7.47;;;18.90;99.90;;;;;;5050120;28;20078;-75
2022/08/01 06:23:27;;;;;;;10.50;7.22;;;18.90;99.90;;;;;;5046350;28;20521;-77
2022/08/01 06:25:54;;;;;;;11.82;8.23;;;18.90;99.90;;;;;;5035062;28;20103;-76
2022/08/01 06:28:20;;;;;;;10.77;7.25;;;18.90;99.90;;;;;;5033029;28;20071;-78
2022/08/01 06:30:47;;;;;;;11.85;7.38;;;18.90;99.90;;;;;;5020509;28;20632;-83
2022/08/01 06:33:14;;;;;;;10.07;6.90;;;18.90;99.90;;;;;;5049360;28;20439;-77
2022/08/01 06:35:40;;;;;;;13.10;7.45;;;18.90;99.90;;;;;;5044882;28;20040;-75
2022/08/01 06:38:05;;;;;;;11.27;6.93;;;18.90;99.90;;;;;;5033715;28;20021;-74
2022/08/01 06:40:31;;;;;;;7.40;6.40;;;18.90;99.90;;;;;;5028079;28;20098;-74
2022/08/01 06:42:57;;;;;;;9.68;6.85;;;18.90;99.90;;;;;;5044561;28;20386;-77
2022/08/01 06:45:24;;;;;;;13.15;6.40;;;18.80;99.90;;;;;;5043136;28;20037;-75
2022/08/01 06:47:50;;;;;;;11.73;5.88;;;18.90;99.90;;;;;;5025440;28;20079;-75
2022/08/01 06:50:16;;;;;;;12.43;6.07;;;18.80;99.90;;;;;;5027581;28;20433;-73
2022/08/01 06:52:41;;;;;;;11.82;6.00;;;18.70;99.90;;;;;;5029561;28;20021;-75
2022/08/01 06:55:08;;;;;;;10.60;6.20;;;18.80;99.90;;;;;;5015063;28;20033;-74
2022/08/01 06:57:34;;;;;;;12.75;5.70;;;18.80;99.90;;;;;;5041959;28;20024;-75
2022/08/01 07:00:10;;;;;;;12.85;5.57;;;18.80;99.90;;;;;;5028513;28;20095;-74
2022/08/01 07:02:36;;;;;;;9.88;4.85;;;18.80;99.90;;;;;;5037696;28;20032;-73
2022/08/01 07:05:03;;;;;;;12.27;5.03;;;18.80;99.90;;;;;;5029749;28;20033;-74
2022/08/01 07:07:30;;;;;;;12.48;5.53;;;18.90;99.90;;;;;;5027541;28;20035;-74
2022/08/01 07:09:56;;;;;;;7.93;4.50;;;19.00;99.90;;;;;;5013165;28;20040;-74
2022/08/01 07:12:22;;;;;;;12.75;5.75;;;19.00;99.90;;;;;;5049912;28;20128;-73
2022/08/01 07:14:47;;;;;;;8.52;4.22;;;19.00;99.90;;;;;;5046633;28;20036;-74
2022/08/01 07:17:13;;;;;;;10.43;4.63;;;19.00;99.90;;;;;;5041427;28;20029;-74
2022/08/01 07:19:39;;;;;;;9.20;4.22;;;19.00;99.90;;;;;;5044965;28;20505;-75
2022/08/01 07:22:04;;;;;;;13.77;6.05;;;19.00;99.90;;;;;;5021651;28;20091;-74
2022/08/01 07:24:31;;;;;;;16.45;6.45;;;18.90;99.90;;;;;;5025433;28;20025;-74
2022/08/01 07:26:57;;;;;;;16.60;7.32;;;18.90;99.90;;;;;;5051268;28;20017;-74
2022/08/01 07:29:26;;;;;;;12.82;6.78;;;18.80;99.90;;;;;;5051186;28;20056;-74
2022/08/01 07:31:54;;;;;;;16.33;7.65;;;18.80;99.90;;;;;;5040540;28;20033;-73
2022/08/01 07:34:20;;;;;;;13.95;7.00;;;18.70;99.90;;;;;;5031390;28;20028;-75
2022/08/01 07:36:46;;;;;;;12.38;5.93;;;18.80;99.90;;;;;;5046425;28;20504;-78
2022/08/01 07:39:12;;;;;;;15.55;6.00;;;18.80;99.90;;;;;;5044294;28;20039;-74
2022/08/01 07:41:37;;;;;;;22.15;6.07;;;18.80;99.90;;;;;;5032744;28;20029;-74
2022/08/01 07:44:03;;;;;;;15.63;4.80;;;18.80;99.90;;;;;;5024646;28;20033;-74
2022/08/01 07:46:30;;;;;;;15.57;5.20;;;18.90;99.90;;;;;;5029684;28;20033;-74
2022/08/01 07:48:56;;;;;;;12.75;4.30;;;18.90;99.90;;;;;;5047051;28;20036;-73
2022/08/01 07:51:22;;;;;;;12.93;3.90;;;18.90;99.90;;;;;;5047278;28;20033;-73
2022/08/01 07:53:48;;;;;;;10.10;3.40;;;18.90;99.90;;;;;;5028261;28;20032;-74
2022/08/01 07:56:14;;;;;;;8.27;3.33;;;18.90;99.90;;;;;;5042602;28;20096;-74
2022/08/01 07:58:39;;;;;;;11.60;2.53;;;19.00;99.90;;;;;;5038462;28;20031;-73
2022/08/01 08:01:05;;;;;;;7.85;2.67;;;19.00;99.90;;;;;;5028910;28;20404;-73
2022/08/01 08:03:31;;;;;;;9.85;2.88;;;19.20;99.90;;;;;;5026068;28;20028;-74
2022/08/01 08:06:00;;;;;;;8.77;3.08;;;19.20;99.90;;;;;;5040365;28;20017;-74
2022/08/01 08:08:26;;;;;;;15.85;3.10;;;19.30;99.90;;;;;;5043581;28;20017;-74
2022/08/01 08:10:52;;;;;;;8.80;2.35;;;19.30;99.90;;;;;;5026073;28;20895;-74
2022/08/01 08:13:18;;;;;;;7.70;2.03;;;19.30;99.90;;;;;;5043628;28;20037;-74
2022/08/01 08:15:44;;;;;;;8.23;2.13;;;19.30;99.90;;;;;;5041842;28;20118;-74
2022/08/01 08:18:10;;;;;;;7.95;1.80;;;19.30;99.90;;;;;;5041927;28;20027;-74
2022/08/01 08:20:36;;;;;;;13.98;2.80;;;19.30;99.90;;;;;;5044758;28;20025;-74
2022/08/01 08:24:19;;;;;;;12.52;2.38;;;19.30;99.90;;;;;;5028310;28;20029;-74
2022/08/01 08:25:47;;;;;;;11.23;2.30;;;19.10;99.90;;;;;;5045275;28;20025;-74
2022/08/01 08:28:13;;;;;;;12.00;2.70;;;19.20;99.90;;;;;;5043979;28;20503;-75
2022/08/01 08:30:39;;;;;;;10.13;2.17;;;19.10;99.90;;;;;;5044105;28;20033;-73
2022/08/01 08:33:04;;;;;;;8.85;2.60;;;19.00;99.90;;;;;;5044770;28;20025;-75
2022/08/01 08:35:30;;;;;;;12.10;2.70;;;19.00;99.90;;;;;;5039574;28;20025;-74
2022/08/01 08:37:56;;;;;;;10.80;2.80;;;19.00;99.90;;;;;;5031800;28;20158;-74
2022/08/01 08:40:28;;;;;;;10.70;2.78;;;19.00;99.90;;;;;;5027885;28;20028;-74
2022/08/01 08:42:55;;;;;;;9.98;2.38;;;19.00;99.90;;;;;;5040656;28;20033;-74
2022/08/01 08:45:21;;;;;;;9.38;2.20;;;19.00;99.90;;;;;;5029540;28;20032;-73
2022/08/01 08:47:48;;;;;;;9.07;2.08;;;19.00;99.90;;;;;;5046422;28;20464;-74
2022/08/01 08:50:15;;;;;;;14.75;3.08;;;19.10;99.90;;;;;;5021736;28;20087;-75
2022/08/01 08:52:42;;;;;;;11.20;2.55;;;19.10;99.90;;;;;;5015513;28;20029;-75
2022/08/01 08:55:10;;;;;;;8.85;2.60;;;19.10;99.90;;;;;;5029220;28;20036;-74
2022/08/01 08:57:40;;;;;;;9.57;2.28;;;19.20;99.90;;;;;;5042131;28;20375;-75
2022/08/01 09:00:07;;;;;;;13.85;2.88;;;19.20;99.90;;;;;;5030221;28;20546;-74
2022/08/01 09:02:33;;;;;;;7.53;1.95;;;19.20;99.90;;;;;;5027857;28;20037;-74
2022/08/01 09:04:58;;;;;;;14.25;2.70;;;19.20;99.90;;;;;;5042912;28;20155;-74
2022/08/01 09:07:25;;;;;;;10.75;2.35;;;19.20;99.90;;;;;;5046358;28;20184;-74
2022/08/01 09:09:51;;;;;;;6.72;2.03;;;19.20;99.90;;;;;;5050958;28;20025;-74
2022/08/01 09:12:18;;;;;;;7.70;1.95;;;19.30;99.90;;;;;;5025761;28;20783;-74
2022/08/01 09:14:46;;;;;;;6.13;1.83;;;19.30;99.90;;;;;;5012125;28;20017;-74
2022/08/01 09:17:12;;;;;;;6.20;1.88;;;19.40;99.90;;;;;;5047188;28;20079;-75
2022/08/01 09:19:40;;;;;;;9.50;2.15;;;19.40;99.90;;;;;;5032496;28;20467;-75
2022/08/01 09:22:10;;;;;;;9.77;2.25;;;19.50;99.90;;;;;;5044962;28;20159;-74
2022/08/01 09:24:36;;;;;;;10.77;2.38;;;19.50;99.90;;;;;;5052580;28;20540;-75
2022/08/01 09:27:19;;;;;;;9.48;2.60;;;19.50;99.90;;;;;;5029165;28;20367;-75
2022/08/01 09:29:45;;;;;;;12.20;3.20;;;19.60;99.90;;;;;;5041263;28;20088;-75
2022/08/01 09:32:11;;;;;;;10.95;2.30;;;19.60;99.90;;;;;;5028558;28;20033;-74
2022/08/01 09:34:37;;;;;;;12.07;3.28;;;19.70;99.90;;;;;;5043737;28;20025;-74
2022/08/01 09:37:06;;;;;;;9.15;3.08;;;19.70;99.90;;;;;;5028592;28;20444;-74
2022/08/01 09:39:37;;;;;;;15.52;3.72;;;19.80;99.90;;;;;;5028906;28;20457;-74
2022/08/01 09:42:28;;;;;;;10.63;3.38;;;20.00;99.90;;;;;;5031497;28;20248;-74
2022/08/01 09:44:54;;;;;;;14.05;3.40;;;20.10;99.90;;;;;;5039731;28;20056;-75
2022/08/01 09:47:20;;;;;;;13.38;3.28;;;20.20;99.90;;;;;;5034628;28;20113;-73
2022/08/01 09:49:54;;;;;;;16.35;4.30;;;20.20;99.90;;;;;;5026938;28;20033;-76
2022/08/01 09:52:23;;;;;;;12.18;3.22;;;20.20;99.90;;;;;;5048767;28;20029;-74
2022/08/01 09:55:01;;;;;;;8.95;3.35;;;20.10;99.90;;;;;;5011062;28;20033;-74
2022/08/01 09:57:27;;;;;;;9.70;2.92;;;20.10;99.90;;;;;;5048007;28;20017;-74
2022/08/01 09:59:57;;;;;;;9.63;3.53;;;20.10;99.90;;;;;;5045293;28;20025;-74
2022/08/01 10:02:34;;;;;;;15.00;3.58;;;20.20;99.90;;;;;;5033247;28;20033;-74
2022/08/01 10:05:02;;;;;;;13.30;3.55;;;20.20;99.90;;;;;;5046731;28;20061;-75
2022/08/01 10:07:28;;;;;;;10.40;3.38;;;20.20;99.90;;;;;;5029002;28;20080;-75
2022/08/01 10:09:54;;;;;;;14.13;4.15;;;20.10;99.90;;;;;;5033638;28;20072;-75
2022/08/01 10:12:23;;;;;;;15.23;3.78;;;20.20;99.90;;;;;;5028795;28;20489;-74
2022/08/01 10:14:55;;;;;;;9.48;3.20;;;20.20;99.90;;;;;;5043963;28;20604;-75
2022/08/01 10:17:24;;;;;;;11.00;3.80;;;20.20;99.90;;;;;;5048178;28;20421;-73
2022/08/01 10:19:54;;;;;;;10.70;3.88;;;20.40;99.90;;;;;;5025774;28;20028;-75
2022/08/01 10:22:23;;;;;;;10.50;3.42;;;20.40;99.90;;;;;;5048133;28;20052;-75
2022/08/01 10:24:54;;;;;;;13.18;3.42;;;20.40;99.90;;;;;;5042348;28;20021;-76
2022/08/01 10:27:21;;;;;;;12.43;2.92;;;20.50;99.90;;;;;;5025498;28;20021;-74
2022/08/01 10:29:51;;;;;;;9.57;2.63;;;20.50;99.90;;;;;;5040331;28;20036;-74
2022/08/01 10:32:17;;;;;;;13.00;2.92;;;20.50;99.90;;;;;;5045052;28;20107;-74
2022/08/01 10:34:44;;;;;;;10.55;2.50;;;20.50;99.90;;;;;;5028745;28;20099;-74
2022/08/01 10:37:12;;;;;;;14.07;3.08;;;20.50;99.90;;;;;;5046352;28;20060;-74
2022/08/01 10:39:39;;;;;;;12.25;2.92;;;20.60;99.90;;;;;;5041713;28;20445;-75
2022/08/01 10:42:06;;;;;;;8.80;2.00;;;20.60;99.90;;;;;;5044724;28;20036;-75
2022/08/01 10:44:32;;;;;;;9.50;2.40;;;20.70;99.90;;;;;;5042754;28;20033;-73
2022/08/01 10:47:07;;;;;;;12.88;2.55;;;20.70;99.90;;;;;;5032899;28;20495;-74
2022/08/01 10:49:42;;;;;;;9.43;2.72;;;20.80;99.90;;;;;;5028643;28;20033;-75
2022/08/01 10:52:14;;;;;;;11.75;2.20;;;20.70;99.90;;;;;;5048174;28;20029;-74
2022/08/01 10:54:40;;;;;;;11.43;2.13;;;20.70;99.90;;;;;;5025397;28;20032;-75
2022/08/01 10:57:06;;;;;;;9.40;3.13;;;20.70;99.90;;;;;;5051767;28;20032;-75
2022/08/01 10:59:34;;;;;;;79.65;45.08;;;20.80;99.90;;;;;;5045210;28;20028;-76
2022/08/01 11:02:04;;;;;;;61.90;39.85;;;20.90;99.90;;;;;;5027807;28;20055;-76
2022/08/01 11:04:54;;;;;;;14.55;8.20;;;21.00;99.90;;;;;;5028522;28;20040;-77
2022/08/01 11:07:47;;;;;;;21.13;9.55;;;21.10;99.90;;;;;;5043643;28;20037;-76
2022/08/01 11:10:34;;;;;;;8.35;2.70;;;21.20;99.90;;;;;;5024881;28;20825;-76
2022/08/01 11:13:03;;;;;;;11.60;2.60;;;21.20;99.90;;;;;;5049730;28;20081;-76
2022/08/01 11:15:29;;;;;;;10.40;2.10;;;21.30;99.90;;;;;;5046036;28;20059;-76
2022/08/01 11:17:55;;;;;;;8.05;2.03;;;21.40;99.90;;;;;;5050132;28;20639;-77
2022/08/01 11:20:25;;;;;;;8.00;2.05;;;21.40;99.90;;;;;;5030465;28;20496;-76
2022/08/01 11:25:48;;;;;;;7.55;1.67;;;21.50;99.80;;;;;;5024954;28;20137;-76
2022/08/01 11:28:15;;;;;;;10.13;1.40;;;21.70;99.10;;;;;;5020430;28;20040;-77
2022/08/01 11:30:46;;;;;;;7.72;1.75;;;21.90;98.70;;;;;;5042735;28;20032;-76
2022/08/01 11:33:13;;;;;;;6.45;1.70;;;22.20;99.60;;;;;;5025893;28;20523;-76
2022/08/01 11:36:11;;;;;;;6.20;1.90;;;22.60;99.00;;;;;;5048161;28;20036;-77
2022/08/01 11:38:48;;;;;;;5.78;1.75;;;23.60;96.50;;;;;;5031376;28;20028;-75
2022/08/01 11:41:17;;;;;;;8.80;1.98;;;24.70;93.40;;;;;;5030378;28;20032;-76
2022/08/01 11:43:55;;;;;;;9.43;1.52;;;25.80;91.00;;;;;;5027760;28;20068;-75
2022/08/01 11:46:58;;;;;;;8.73;1.88;;;26.80;82.50;;;;;;5032493;28;20024;-76
2022/08/01 11:49:36;;;;;;;8.35;1.80;;;27.40;78.10;;;;;;5026572;28;20095;-77
2022/08/01 11:52:09;;;;;;;7.50;1.90;;;27.80;75.40;;;;;;5040823;28;20052;-77
2022/08/01 11:54:52;;;;;;;6.82;1.92;;;28.10;72.60;;;;;;5009595;28;20025;-77
2022/08/01 11:57:19;;;;;;;5.60;1.70;;;28.00;71.00;;;;;;5024556;28;20021;-76
2022/08/01 11:59:50;;;;;;;7.45;1.77;;;27.40;69.80;;;;;;5046071;28;20499;-78
2022/08/01 12:02:31;;;;;;;4.85;1.38;;;27.10;69.30;;;;;;5029263;28;20477;-76
2022/08/01 12:05:11;;;;;;;6.78;1.60;;;27.20;69.70;;;;;;5039766;28;20095;-76
2022/08/01 12:07:38;;;;;;;;;;;27.50;69.50;;;;;;5049252;28;20032;-76
2022/08/01 12:10:07;;;;;;;4.80;1.60;;;27.20;68.70;;;;;;5048129;28;20375;-76
2022/08/01 12:12:34;;;;;;;4.65;1.70;;;27.40;65.80;;;;;;5046077;28;20029;-76
2022/08/01 12:15:08;;;;;;;8.10;1.98;;;27.20;64.50;;;;;;5029573;28;20074;-77
2022/08/01 12:17:35;;;;;;;3.90;1.42;;;27.10;65.10;;;;;;5049784;28;20412;-76
2022/08/01 12:20:04;;;;;;;5.30;1.85;;;27.00;66.00;;;;;;5032712;28;20036;-78
2022/08/01 12:22:30;;;;;;;4.35;1.38;;;27.30;64.40;;;;;;5048283;28;20032;-77
2022/08/01 12:25:07;;;;;;;5.22;1.20;;;27.70;65.50;;;;;;5019171;28;20413;-78
2022/08/01 12:27:34;;;;;;;6.38;1.50;;;27.80;65.70;;;;;;5043247;28;20052;-78
2022/08/01 12:30:00;;;;;;;6.90;1.35;;;28.50;62.00;;;;;;5049106;28;20481;-78
2022/08/01 12:32:35;;;;;;;5.68;1.10;;;28.00;63.50;;;;;;5048297;28;20986;-76
2022/08/01 12:35:02;;;;;;;8.63;1.58;;;28.00;62.90;;;;;;5030337;28;20508;-77
2022/08/01 12:37:27;;;;;;;6.13;1.67;;;27.80;63.50;;;;;;5047685;28;20036;-77
2022/08/01 12:39:53;;;;;;;13.50;7.25;;;28.10;63.30;;;;;;5032171;28;20508;-77
2022/08/01 12:42:19;;;;;;;9.18;2.90;;;28.30;61.00;;;;;;5031806;28;20037;-76
2022/08/01 12:44:50;;;;;;;23.58;15.52;;;27.60;62.10;;;;;;5054371;28;20040;-77
2022/08/01 12:47:18;;;;;;;12.73;6.32;;;27.80;63.50;;;;;;5032737;28;20029;-76
2022/08/01 12:49:45;;;;;;;7.65;2.00;;;28.50;60.80;;;;;;5031030;28;20037;-76
2022/08/01 12:52:11;;;;;;;5.55;1.40;;;28.60;61.10;;;;;;5047857;28;20429;-77
2022/08/01 12:55:24;;;;;;;8.57;1.73;;;28.80;58.60;;;;;;5030778;28;20033;-76